createdAt,value
2019-01-19T00:04:52.979Z,10.97
2019-01-19T00:09:09.371Z,13.07
2019-01-19T00:13:33.524Z,15.07
2019-01-19T00:17:56.901Z,13.20
2019-01-19T00:22:21.537Z,13.00
2019-01-19T00:27:45.120Z,10.07
2019-01-19T00:32:12.447Z,10.03
2019-01-19T00:36:27.029Z,10.93
2019-01-19T00:40:44.768Z,13.80
2019-01-19T00:45:01.537Z,20.17
2019-01-19T00:49:19.223Z,20.63
2019-01-19T00:53:36.350Z,24.93
2019-01-19T00:57:57.465Z,29.07
2019-01-19T01:04:20.781Z,23.23
2019-01-19T01:08:48.822Z,24.10
2019-01-19T01:14:09.349Z,15.13
2019-01-19T01:18:25.552Z,21.03
2019-01-19T01:22:44.613Z,15.20
2019-01-19T01:27:16.109Z,15.43
2019-01-19T01:31:52.161Z,14.70
2019-01-19T01:36:22.180Z,13.43
2019-01-19T01:41:42.909Z,15.77
2019-01-19T01:46:02.617Z,18.90
2019-01-19T01:50:17.397Z,12.87
2019-01-19T01:54:33.969Z,13.97
2019-01-19T01:58:55.504Z,16.83
2019-01-19T02:03:13.724Z,15.37
2019-01-19T02:08:05.714Z,11.37
2019-01-19T02:12:46.318Z,12.27
2019-01-19T02:18:12.890Z,13.57
2019-01-19T02:24:37.960Z,11.33
2019-01-19T02:29:01.805Z,14.87
2019-01-19T02:33:19.801Z,12.60
2019-01-19T02:39:39.250Z,14.60
2019-01-19T02:46:01.249Z,12.50
2019-01-19T02:50:49.506Z,12.33
2019-01-19T02:55:09.037Z,12.70
2019-01-19T02:59:23.767Z,10.30
2019-01-19T03:06:49.337Z,12.00
2019-01-19T03:11:16.080Z,8.33
2019-01-19T03:15:37.722Z,16.27
2019-01-19T03:19:57.052Z,10.63
2019-01-19T03:24:18.593Z,12.97
2019-01-19T03:28:35.894Z,15.03
2019-01-19T03:32:56.930Z,13.90
2019-01-19T03:37:14.469Z,22.60
2019-01-19T03:41:33.948Z,16.03
2019-01-19T03:45:53.373Z,19.87
2019-01-19T03:50:13.388Z,14.20
2019-01-19T03:54:32.535Z,12.63
2019-01-19T03:58:47.582Z,13.73
2019-01-19T04:03:08.613Z,17.23
2019-01-19T04:07:42.350Z,13.57
2019-01-19T04:12:01.917Z,14.13
2019-01-19T04:17:25.752Z,10.00
2019-01-19T04:21:48.648Z,13.10
2019-01-19T04:26:01.390Z,14.47
2019-01-19T04:30:11.552Z,13.23
2019-01-19T04:34:19.704Z,14.47
2019-01-19T04:38:27.861Z,15.87
2019-01-19T04:42:36.010Z,14.93
2019-01-19T04:46:44.161Z,13.53
2019-01-19T04:50:52.300Z,13.63
2019-01-19T04:55:00.432Z,11.00
2019-01-19T04:59:08.584Z,13.10
2019-01-19T05:03:16.723Z,14.13
2019-01-19T05:07:24.874Z,24.93
2019-01-19T05:11:33.004Z,18.13
2019-01-19T05:15:41.141Z,16.80
2019-01-19T05:19:49.279Z,16.93
2019-01-19T05:23:57.424Z,17.27
2019-01-19T05:28:05.569Z,14.17
2019-01-19T05:32:13.980Z,14.70
2019-01-19T05:36:22.116Z,13.63
2019-01-19T05:40:30.250Z,11.13
2019-01-19T05:44:38.384Z,8.70
2019-01-19T05:48:46.513Z,11.80
2019-01-19T05:52:54.645Z,13.17
2019-01-19T05:57:02.780Z,14.63
2019-01-19T06:01:10.920Z,11.20
2019-01-19T06:05:19.041Z,11.43
2019-01-19T06:09:27.196Z,14.30
2019-01-19T06:13:35.358Z,12.50
2019-01-19T06:17:43.503Z,16.30
2019-01-19T06:21:56.233Z,19.10
2019-01-19T06:26:04.403Z,11.77
2019-01-19T06:30:16.196Z,12.23
2019-01-19T06:34:24.340Z,14.93
2019-01-19T06:38:32.474Z,13.67
2019-01-19T06:42:40.656Z,16.80
2019-01-19T06:46:48.805Z,16.07
2019-01-19T06:50:56.944Z,17.33
2019-01-19T06:55:05.384Z,16.30
2019-01-19T06:59:17.521Z,17.03
2019-01-19T07:03:21.660Z,17.00
2019-01-19T07:07:29.804Z,17.43
2019-01-19T07:11:37.954Z,21.60
2019-01-19T07:15:46.085Z,16.73
2019-01-19T07:19:54.228Z,18.63
2019-01-19T07:24:02.377Z,19.27
2019-01-19T07:28:10.526Z,27.07
2019-01-19T07:32:18.678Z,22.37
2019-01-19T07:36:26.832Z,20.40
2019-01-19T07:40:35.458Z,20.93
2019-01-19T07:44:43.593Z,18.03
2019-01-19T07:48:51.728Z,15.17
2019-01-19T07:52:59.898Z,24.63
2019-01-19T07:57:08.051Z,20.57
2019-01-19T08:01:16.189Z,22.50
2019-01-19T08:05:24.340Z,29.30
2019-01-19T08:09:32.497Z,27.03
2019-01-19T08:13:40.634Z,33.47
2019-01-19T08:17:48.783Z,24.47
2019-01-19T08:21:56.934Z,30.53
2019-01-19T08:26:05.076Z,26.47
2019-01-19T08:30:17.698Z,32.30
2019-01-19T08:34:25.838Z,20.73
2019-01-19T08:38:33.989Z,21.87
2019-01-19T08:42:42.130Z,18.90
2019-01-19T08:46:50.264Z,11.90
2019-01-19T08:50:58.433Z,16.70
2019-01-19T08:55:06.925Z,17.00
2019-01-19T08:59:15.069Z,17.07
2019-01-19T09:03:23.188Z,12.50
2019-01-19T09:07:33.890Z,13.33
2019-01-19T09:11:39.471Z,13.37
2019-01-19T09:15:48.064Z,16.50
2019-01-19T09:19:56.212Z,15.43
2019-01-19T09:24:11.123Z,18.00
2019-01-19T09:28:19.261Z,16.80
2019-01-19T09:32:27.408Z,17.20
2019-01-19T09:36:35.549Z,14.10
2019-01-19T09:40:43.698Z,43.73
2019-01-19T09:44:51.830Z,13.33
2019-01-19T09:49:00.022Z,18.20
2019-01-19T09:53:08.144Z,31.43
2019-01-19T09:57:16.280Z,27.63
2019-01-19T10:01:24.527Z,12.00
2019-01-19T10:05:32.642Z,19.80
2019-01-19T10:09:40.775Z,13.93
2019-01-19T10:13:48.906Z,12.70
2019-01-19T10:17:57.040Z,11.37
2019-01-19T10:22:05.173Z,13.20
2019-01-19T10:26:13.377Z,10.70
2019-01-19T10:30:23.505Z,12.90
2019-01-19T10:34:31.649Z,11.77
2019-01-19T10:38:40.757Z,11.93
2019-01-19T10:42:48.010Z,10.50
2019-01-19T10:46:56.145Z,9.53
2019-01-19T10:51:04.280Z,10.40
2019-01-19T10:55:13.865Z,10.80
2019-01-19T10:59:21.984Z,10.17
2019-01-19T11:03:30.122Z,12.47
2019-01-19T11:07:38.258Z,9.10
2019-01-19T11:11:46.397Z,10.03
2019-01-19T11:15:54.519Z,11.40
2019-01-19T11:20:02.652Z,9.23
2019-01-19T11:24:10.786Z,9.10
2019-01-19T11:28:18.922Z,6.43
2019-01-19T11:32:27.171Z,11.37
2019-01-19T11:36:35.313Z,8.13
2019-01-19T11:40:43.450Z,8.90
2019-01-19T11:44:51.631Z,8.30
2019-01-19T11:48:59.777Z,9.57
2019-01-19T11:53:07.981Z,7.63
2019-01-19T11:57:16.104Z,7.70
2019-01-19T12:01:24.257Z,10.20
2019-01-19T12:05:32.417Z,10.20
2019-01-19T12:09:41.249Z,9.23
2019-01-19T12:13:48.812Z,6.30
2019-01-19T12:17:56.912Z,9.27
2019-01-19T12:22:05.054Z,6.90
2019-01-19T12:26:13.198Z,7.47
2019-01-19T12:30:23.306Z,6.03
2019-01-19T12:34:31.432Z,8.03
2019-01-19T12:38:39.565Z,5.33
2019-01-19T12:42:49.197Z,6.13
2019-01-19T12:46:57.341Z,5.20
2019-01-19T12:51:08.596Z,7.30
2019-01-19T12:55:17.423Z,9.27
2019-01-19T12:59:24.898Z,7.33
2019-01-19T13:03:33.040Z,4.97
2019-01-19T13:07:41.227Z,4.83
2019-01-19T13:12:04.731Z,9.50
2019-01-19T13:16:43.676Z,6.33
2019-01-19T13:21:04.512Z,5.63
2019-01-19T13:26:30.768Z,5.83
2019-01-19T13:30:49.658Z,5.10
2019-01-19T13:35:19.268Z,7.60
2019-01-19T13:40:07.616Z,6.70
2019-01-19T13:45:02.193Z,5.20
2019-01-19T13:49:21.317Z,6.37
2019-01-19T13:54:51.894Z,4.93
2019-01-19T13:59:15.853Z,8.77
2019-01-19T14:05:41.171Z,4.60
2019-01-19T14:10:10.546Z,6.40
2019-01-19T14:14:39.141Z,5.23
2019-01-19T14:19:30.161Z,4.60
2019-01-19T14:23:51.180Z,4.73
2019-01-19T14:28:11.614Z,5.77
2019-01-19T14:34:41.277Z,4.03
2019-01-19T14:39:18.354Z,6.10
2019-01-19T14:43:45.604Z,4.90
2019-01-19T14:48:20.265Z,4.43
2019-01-19T14:54:43.003Z,4.77
2019-01-19T14:59:00.725Z,5.03
2019-01-19T15:05:21.140Z,6.90
2019-01-19T15:09:46.981Z,10.53
2019-01-19T15:14:01.336Z,8.83
2019-01-19T15:18:27.532Z,7.43
2019-01-19T15:24:50.146Z,7.40
2019-01-19T15:29:16.185Z,7.80
2019-01-19T15:33:42.501Z,5.37
2019-01-19T15:39:10.990Z,13.37
2019-01-19T15:43:49.524Z,25.17
2019-01-19T15:48:09.012Z,24.57
2019-01-19T15:52:25.238Z,27.30
2019-01-19T15:56:47.437Z,22.93
2019-01-19T16:03:13.654Z,20.10
2019-01-19T16:07:35.469Z,12.40
2019-01-19T16:11:59.464Z,10.50
2019-01-19T16:17:16.632Z,13.90
2019-01-19T16:21:37.785Z,9.50
2019-01-19T16:28:01.020Z,13.83
2019-01-19T16:33:19.600Z,16.83
2019-01-19T16:37:43.559Z,14.37
2019-01-19T16:42:06.537Z,13.77
2019-01-19T16:48:29.561Z,14.93
2019-01-19T16:52:46.725Z,12.23
2019-01-19T16:57:07.750Z,10.43
2019-01-19T17:02:26.501Z,12.33
2019-01-19T17:06:54.109Z,8.30
2019-01-19T17:13:35.837Z,12.60
2019-01-19T17:17:55.791Z,22.93
2019-01-19T17:22:09.841Z,31.60
2019-01-19T17:26:44.929Z,19.93
2019-01-19T17:31:03.773Z,32.73
2019-01-19T17:35:29.669Z,37.90
2019-01-19T17:39:48.765Z,52.13
2019-01-19T17:44:06.944Z,41.27
2019-01-19T17:48:27.949Z,28.47
2019-01-19T17:53:00.732Z,17.37
2019-01-19T17:57:48.912Z,18.77
2019-01-19T18:04:14.574Z,14.50
2019-01-19T18:08:49.976Z,26.80
2019-01-19T18:13:10.379Z,15.33
2019-01-19T18:18:43.893Z,17.80
2019-01-19T18:23:05.961Z,26.43
2019-01-19T18:27:37.488Z,21.37
2019-01-19T18:31:55.348Z,15.10
2019-01-19T18:36:17.196Z,13.20
2019-01-19T18:41:14.086Z,15.37
2019-01-19T18:45:35.201Z,25.67
2019-01-19T18:50:28.995Z,37.23
2019-01-19T18:55:07.326Z,32.53
2019-01-19T18:59:26.964Z,27.23
2019-01-19T19:05:49.152Z,25.27
2019-01-19T19:11:11.732Z,18.60
2019-01-19T19:15:31.177Z,37.47
2019-01-19T19:19:50.881Z,19.43
2019-01-19T19:24:18.665Z,21.03
2019-01-19T19:28:36.042Z,17.20
2019-01-19T19:33:00.381Z,32.43
2019-01-19T19:37:17.500Z,21.60
2019-01-19T19:42:38.644Z,19.90
2019-01-19T19:46:57.006Z,17.10
2019-01-19T19:51:15.693Z,38.00
2019-01-19T19:55:22.873Z,24.97
2019-01-19T19:59:31.006Z,17.50
2019-01-19T20:03:39.146Z,23.00
2019-01-19T20:07:47.268Z,14.97
2019-01-19T20:11:59.109Z,17.63
2019-01-19T20:16:07.250Z,16.27
2019-01-19T20:20:15.620Z,16.00
2019-01-19T20:24:23.769Z,15.63
2019-01-19T20:28:31.913Z,20.03
2019-01-19T20:32:40.055Z,20.23
2019-01-19T20:36:48.220Z,20.97
2019-01-19T20:40:56.349Z,20.07
2019-01-19T20:45:05.445Z,17.27
2019-01-19T20:49:13.592Z,16.17
2019-01-19T20:53:21.741Z,22.07
2019-01-19T20:57:29.876Z,17.20
2019-01-19T21:01:38.021Z,21.23
2019-01-19T21:05:46.161Z,22.10
2019-01-19T21:09:54.312Z,21.60
2019-01-19T21:14:02.466Z,28.50
2019-01-19T21:18:10.628Z,34.27
2019-01-19T21:22:18.794Z,47.20
2019-01-19T21:26:26.943Z,35.37
2019-01-19T21:30:35.077Z,44.00
2019-01-19T21:34:43.222Z,35.50
2019-01-19T21:38:51.362Z,35.63
2019-01-19T21:42:59.507Z,41.77
2019-01-19T21:47:07.640Z,31.87
2019-01-19T21:51:15.774Z,42.40
2019-01-19T21:55:23.912Z,27.30
2019-01-19T21:59:32.049Z,31.37
2019-01-19T22:03:40.194Z,23.90
2019-01-19T22:07:48.335Z,28.67
2019-01-19T22:11:56.490Z,30.93
2019-01-19T22:16:04.637Z,29.57
2019-01-19T22:20:13.741Z,46.13
2019-01-19T22:24:21.880Z,47.33
2019-01-19T22:28:30.021Z,37.03
2019-01-19T22:32:38.170Z,34.60
2019-01-19T22:36:46.459Z,52.60
2019-01-19T22:40:54.635Z,27.43
2019-01-19T22:45:02.773Z,24.57
2019-01-19T22:49:10.997Z,22.60
2019-01-19T22:53:19.073Z,36.93
2019-01-19T22:57:27.229Z,22.67
2019-01-19T23:01:41.558Z,27.60
2019-01-19T23:05:49.716Z,25.73
2019-01-19T23:09:57.878Z,27.17
2019-01-19T23:14:06.016Z,29.70
2019-01-19T23:18:14.159Z,37.13
2019-01-19T23:22:22.311Z,34.87
2019-01-19T23:26:30.465Z,22.50
2019-01-19T23:30:38.592Z,22.90
2019-01-19T23:34:46.745Z,24.27
2019-01-19T23:38:54.917Z,27.30
2019-01-19T23:43:03.082Z,24.70
2019-01-19T23:47:11.241Z,21.40
2019-01-19T23:51:19.396Z,24.40
2019-01-19T23:55:27.554Z,23.87
2019-01-19T23:59:35.700Z,20.37
